Time;durP1;ratioP1;P1;durP2;ratioP2;P2;SDS_P1;SDS_P2;PMS_P1;PMS_P2;Temp;Humidity;BMP_temperature;BMP_pressure;BME280_temperature;BME280_humidity;BME280_pressure;Samples;Min_cycle;Max_cycle;Signal;HPM_P1;HPM_P2
2022/05/19 00:01:38;;;;;;;8.53;8.13;;;;;;;5.56;94.81;93799.63;5076550;28;20233;-72
2022/05/19 00:04:04;;;;;;;8.57;7.87;;;;;;;5.40;94.81;93796.88;5076539;28;20182;-72
2022/05/19 00:06:29;;;;;;;9.27;8.87;;;;;;;5.29;95.02;93782.88;5076627;28;20236;-72
2022/05/19 00:08:55;;;;;;;8.27;8.03;;;;;;;5.28;94.97;93772.69;5076380;28;20250;-72
2022/05/19 00:11:27;;;;;;;8.60;8.30;;;;;;;5.63;95.43;93805.53;5077181;28;20244;-72
2022/05/19 00:13:52;;;;;;;8.47;8.17;;;;;;;5.55;94.51;93799.84;5077119;28;20219;-72
2022/05/19 00:16:18;;;;;;;9.67;8.97;;;;;;;5.63;96.30;93804.75;5077184;28;20229;-73
2022/05/19 00:18:43;;;;;;;8.70;8.40;;;;;;;5.40;96.67;93786.50;5070996;28;20189;-73
2022/05/19 00:21:09;;;;;;;9.37;8.97;;;;;;;5.56;96.33;93802.22;5076255;28;20229;-72
2022/05/19 00:23:34;;;;;;;9.60;8.97;;;;;;;5.42;96.52;93789.66;5077795;28;20192;-71
2022/05/19 00:26:00;;;;;;;9.30;8.90;;;;;;;5.63;97.94;93810.72;5075823;28;20247;-72
2022/05/19 00:28:26;;;;;;;9.60;9.20;;;;;;;5.56;96.74;93816.97;5076332;28;20192;-72
2022/05/19 00:30:51;;;;;;;8.60;8.30;;;;;;;5.15;97.46;93778.03;5077008;28;20263;-72
2022/05/19 00:33:17;;;;;;;9.03;8.63;;;;;;;5.11;98.71;93800.97;5079114;28;20240;-72
2022/05/19 00:35:42;;;;;;;8.87;8.47;;;;;;;5.34;97.51;93789.97;5070611;28;20255;-72
2022/05/19 00:38:08;;;;;;;9.23;8.73;;;;;;;5.34;97.54;93782.97;5075019;28;20189;-72
2022/05/19 00:40:34;;;;;;;10.07;9.63;;;;;;;5.41;98.20;93807.00;5076052;28;20307;-72
2022/05/19 00:43:00;;;;;;;9.17;8.77;;;;;;;4.90;98.92;93791.06;5077749;28;20193;-72
2022/05/19 00:45:28;;;;;;;9.40;8.90;;;;;;;5.26;100.00;93816.16;5073213;28;20233;-72
2022/05/19 00:47:58;;;;;;;9.83;9.33;;;;;;;5.55;98.45;93821.38;5077211;28;20189;-72
2022/05/19 00:50:44;;;;;;;8.93;8.57;;;;;;;5.53;98.03;93820.78;5074608;28;20229;-72
2022/05/19 00:53:15;;;;;;;8.93;8.50;;;;;;;5.37;98.03;93825.78;5080591;28;20305;-72
2022/05/19 00:55:45;;;;;;;8.83;8.50;;;;;;;5.41;100.00;93822.53;5077445;28;20255;-73
2022/05/19 00:58:17;;;;;;;8.93;8.63;;;;;;;5.34;99.36;93821.03;5083269;28;20181;-72
2022/05/19 01:00:45;;;;;;;8.63;8.33;;;;;;;5.29;99.12;93816.53;5079456;28;20981;-72
2022/05/19 01:03:14;;;;;;;9.53;9.13;;;;;;;5.39;98.92;93826.34;5080362;28;20180;-72
2022/05/19 01:05:46;;;;;;;9.23;8.93;;;;;;;5.48;98.65;93814.69;5081733;28;20236;-72
2022/05/19 01:08:44;;;;;;;8.63;8.13;;;;;;;5.46;98.71;93835.63;5080130;28;20189;-72
2022/05/19 01:11:10;;;;;;;8.90;8.53;;;;;;;5.31;98.22;93822.25;5072331;28;20300;-72
2022/05/19 01:13:37;;;;;;;9.03;8.43;;;;;;;5.18;100.00;93816.44;5080561;28;20231;-73
2022/05/19 01:16:05;;;;;;;9.67;9.27;;;;;;;5.32;100.00;93833.41;5082941;28;20235;-72
2022/05/19 01:18:32;;;;;;;9.33;8.93;;;;;;;5.14;100.00;93838.59;5081538;28;20203;-72
2022/05/19 01:20:59;;;;;;;8.77;8.37;;;;;;;5.27;100.00;93838.44;5081796;28;20266;-72
2022/05/19 01:23:46;;;;;;;9.63;9.23;;;;;;;5.35;100.00;93835.56;5081164;28;20189;-71
2022/05/19 01:26:37;;;;;;;17.13;9.67;;;;;;;5.52;99.78;93846.91;5082344;28;20233;-72
2022/05/19 01:29:03;;;;;;;9.77;8.97;;;;;;;5.60;100.00;93838.84;5067133;28;20207;-72
2022/05/19 01:31:31;;;;;;;10.13;9.57;;;;;;;5.36;100.00;93837.13;5081374;28;20293;-71
2022/05/19 01:33:57;;;;;;;10.33;9.93;;;;;;;5.17;100.00;93835.56;5083859;28;20217;-73
2022/05/19 01:36:23;;;;;;;10.20;8.53;;;;;;;5.33;100.00;93833.19;5077158;28;20232;-72
2022/05/19 01:38:57;;;;;;;9.13;8.73;;;;;;;5.28;100.00;93820.09;5080287;28;20384;-72
2022/05/19 01:41:31;;;;;;;10.53;10.10;;;;;;;5.30;100.00;93825.06;5080531;28;20227;-71
2022/05/19 01:44:11;;;;;;;9.20;8.80;;;;;;;5.24;100.00;93847.44;5078262;28;20177;-72
2022/05/19 01:46:39;;;;;;;9.70;9.33;;;;;;;5.39;99.67;93837.50;5078707;28;20229;-71
2022/05/19 01:49:35;;;;;;;9.60;9.07;;;;;;;5.42;99.88;93844.03;5080379;28;20193;-72
2022/05/19 01:52:06;;;;;;;8.73;8.33;;;;;;;5.41;100.00;93838.09;5077846;28;20228;-71
2022/05/19 01:54:42;;;;;;;9.73;9.23;;;;;;;5.06;100.00;93823.34;5077782;28;20204;-72
2022/05/19 01:57:17;;;;;;;9.57;9.07;;;;;;;5.29;100.00;93851.97;5079019;28;20220;-72
2022/05/19 02:00:09;;;;;;;9.80;9.33;;;;;;;5.16;100.00;93844.31;5078302;28;20192;-73
2022/05/19 02:02:54;;;;;;;9.23;8.77;;;;;;;5.22;100.00;93861.59;5056923;28;20210;-71
2022/05/19 02:05:31;;;;;;;10.03;9.43;;;;;;;5.16;100.00;93845.13;5058570;28;20213;-71
2022/05/19 02:08:00;;;;;;;9.47;8.97;;;;;;;5.28;100.00;93855.53;5051295;28;20190;-71
2022/05/19 02:10:36;;;;;;;10.77;10.27;;;;;;;5.17;100.00;93851.09;5054120;28;20236;-71
2022/05/19 02:13:03;;;;;;;9.80;9.27;;;;;;;5.26;100.00;93854.97;5070588;28;20264;-71
2022/05/19 02:15:34;;;;;;;9.13;8.73;;;;;;;5.11;100.00;93833.81;5072997;28;20216;-72
2022/05/19 02:18:00;;;;;;;10.17;9.67;;;;;;;5.28;100.00;93860.72;5078383;28;20201;-72
2022/05/19 02:20:28;;;;;;;10.40;9.80;;;;;;;5.27;100.00;93865.13;5077132;28;20217;-71
2022/05/19 02:22:54;;;;;;;10.13;9.73;;;;;;;4.93;100.00;93848.31;5081671;28;20203;-71
2022/05/19 02:25:27;;;;;;;9.27;8.77;;;;;;;5.12;100.00;93856.91;5078459;28;20225;-71
2022/05/19 02:27:53;;;;;;;9.13;8.73;;;;;;;5.16;100.00;93862.44;5080521;28;20227;-71
2022/05/19 02:30:24;;;;;;;9.80;9.20;;;;;;;5.25;100.00;93861.16;5080657;28;20256;-71
2022/05/19 02:32:50;;;;;;;10.27;9.67;;;;;;;5.16;100.00;93867.63;5079595;28;20244;-72
2022/05/19 02:35:16;;;;;;;9.90;9.40;;;;;;;5.02;100.00;93853.22;5079582;28;20225;-72
2022/05/19 02:37:41;;;;;;;10.17;9.67;;;;;;;4.93;100.00;93839.78;5080893;28;20249;-71
2022/05/19 02:40:09;;;;;;;10.40;9.93;;;;;;;5.05;100.00;93865.72;5075679;28;20189;-71
2022/05/19 02:42:35;;;;;;;9.57;9.10;;;;;;;5.22;100.00;93861.59;5081214;28;20271;-72
2022/05/19 02:45:00;;;;;;;10.73;10.13;;;;;;;4.99;100.00;93841.53;5076934;28;20197;-72
2022/05/19 02:47:26;;;;;;;8.90;8.40;;;;;;;5.16;100.00;93862.44;5077360;28;20212;-73
2022/05/19 02:49:51;;;;;;;9.60;9.10;;;;;;;4.96;100.00;93863.41;5082279;28;20189;-72
2022/05/19 02:52:16;;;;;;;11.17;10.30;;;;;;;4.91;100.00;93858.13;5078303;28;20244;-76
2022/05/19 02:54:42;;;;;;;9.13;8.73;;;;;;;4.88;100.00;93855.97;5077281;28;20209;-76
2022/05/19 02:57:07;;;;;;;9.23;8.87;;;;;;;4.76;100.00;93867.22;5075601;28;20259;-76
2022/05/19 02:59:33;;;;;;;9.73;9.33;;;;;;;4.93;100.00;93853.50;5083298;28;20189;-76
2022/05/19 03:01:58;;;;;;;9.43;9.03;;;;;;;4.86;100.00;93842.44;5075567;28;20231;-75
2022/05/19 03:04:24;;;;;;;9.30;8.90;;;;;;;5.03;100.00;93862.59;5079201;28;20212;-76
2022/05/19 03:06:49;;;;;;;9.90;9.33;;;;;;;4.91;100.00;93850.34;5076378;28;20217;-76
2022/05/19 03:09:15;;;;;;;10.27;9.77;;;;;;;4.94;100.00;93864.66;5078511;28;20616;-76
2022/05/19 03:11:40;;;;;;;10.20;9.50;;;;;;;5.07;100.00;93861.16;5079361;28;20240;-76
2022/05/19 03:14:06;;;;;;;8.67;8.20;;;;;;;5.34;100.00;93867.66;5074730;28;20204;-76
2022/05/19 03:16:31;;;;;;;9.60;9.20;;;;;;;6.06;94.66;93854.63;5079359;28;20221;-76
2022/05/19 03:18:57;;;;;;;9.87;9.47;;;;;;;6.91;88.48;93864.47;5079755;28;20180;-76
2022/05/19 03:21:22;;;;;;;10.40;9.90;;;;;;;7.34;85.56;93870.13;5078841;28;21104;-76
2022/05/19 03:23:48;;;;;;;9.57;9.07;;;;;;;7.24;87.29;93841.34;5078220;28;20233;-76
2022/05/19 03:26:13;;;;;;;9.47;9.07;;;;;;;7.77;85.28;93875.69;5076840;28;20266;-76
2022/05/19 03:28:38;;;;;;;9.57;8.87;;;;;;;8.07;80.67;93870.28;5077568;28;20196;-76
2022/05/19 03:31:04;;;;;;;9.70;9.00;;;;;;;8.45;79.54;93882.72;5073734;28;20296;-76
2022/05/19 03:33:30;;;;;;;9.80;9.40;;;;;;;8.25;79.64;93875.34;5076208;28;20215;-76
2022/05/19 03:36:00;;;;;;;8.57;8.23;;;;;;;8.24;80.38;93886.78;5076955;28;20227;-76
2022/05/19 03:38:26;;;;;;;9.27;8.83;;;;;;;8.38;82.09;93882.88;5077496;28;20194;-76
2022/05/19 03:40:52;;;;;;;10.13;9.73;;;;;;;8.99;77.43;93900.28;5077718;28;20233;-76
2022/05/19 03:43:17;;;;;;;9.23;8.77;;;;;;;8.68;78.32;93899.00;5076937;28;20719;-76
2022/05/19 03:45:43;;;;;;;9.50;9.10;;;;;;;8.75;79.15;93899.63;5073460;28;20229;-76
2022/05/19 03:48:09;;;;;;;9.10;8.70;;;;;;;8.79;78.29;93915.59;5075532;28;20252;-78
2022/05/19 03:50:35;;;;;;;9.00;8.60;;;;;;;8.47;81.60;93919.72;5068649;28;20216;-82
2022/05/19 03:53:00;;;;;;;11.00;10.43;;;;;;;8.49;81.16;93904.63;5073332;28;20920;-78
2022/05/19 03:55:26;;;;;;;11.60;10.90;;;;;;;8.44;82.08;93912.34;5078302;28;20236;-83
2022/05/19 03:57:52;;;;;;;10.97;10.30;;;;;;;8.35;81.78;93922.34;5070063;28;20255;-76
2022/05/19 04:00:18;;;;;;;11.83;11.07;;;;;;;8.36;81.91;93920.56;5077647;28;20227;-85
2022/05/19 04:02:45;;;;;;;11.83;10.93;;;;;;;8.25;82.50;93926.59;5079221;28;20181;-82
2022/05/19 04:05:13;;;;;;;13.43;12.33;;;;;;;7.73;85.15;93905.78;5073531;28;20282;-76
2022/05/19 04:07:39;;;;;;;12.43;11.63;;;;;;;7.73;86.78;93918.78;5073922;28;20200;-75
2022/05/19 04:10:06;;;;;;;11.60;10.83;;;;;;;7.87;86.65;93935.72;5077290;28;20180;-84
2022/05/19 04:12:32;;;;;;;13.03;12.03;;;;;;;8.35;85.07;93918.97;5075088;28;20215;-88
2022/05/19 04:14:57;;;;;;;12.03;11.23;;;;;;;8.23;83.74;93939.03;5075159;28;20217;-76
2022/05/19 04:17:23;;;;;;;15.13;14.03;;;;;;;7.82;85.82;93922.59;5071666;28;20181;-76
2022/05/19 04:19:48;;;;;;;12.30;11.40;;;;;;;8.08;86.94;93942.88;5073136;28;20186;-75
2022/05/19 04:22:13;;;;;;;11.93;11.07;;;;;;;8.14;86.10;93933.34;5076259;28;20236;-83
2022/05/19 04:24:39;;;;;;;11.53;10.63;;;;;;;8.37;85.79;93945.53;5074439;28;20189;-77
2022/05/19 04:27:05;;;;;;;12.87;11.93;;;;;;;8.42;84.59;93937.84;5075344;28;20232;-79
2022/05/19 04:29:30;;;;;;;11.83;10.83;;;;;;;7.95;87.76;93940.53;5078527;28;20182;-77
2022/05/19 04:31:56;;;;;;;13.20;12.07;;;;;;;7.81;88.17;93939.19;5082835;28;20228;-79
2022/05/19 04:34:21;;;;;;;12.77;11.57;;;;;;;7.91;87.97;93930.81;5080944;28;20208;-79
2022/05/19 04:36:47;;;;;;;12.53;10.90;;;;;;;8.38;85.97;93939.31;5079983;28;20255;-76
2022/05/19 04:39:13;;;;;;;10.33;9.63;;;;;;;8.46;82.76;93879.09;5075936;28;20213;-76
2022/05/19 04:41:38;;;;;;;10.83;10.13;;;;;;;9.33;82.59;93940.94;5082270;28;20228;-76
2022/05/19 04:44:05;;;;;;;11.00;10.27;;;;;;;9.67;81.43;93945.06;5078727;28;20219;-77
2022/05/19 04:46:30;;;;;;;12.07;11.27;;;;;;;9.51;78.55;93943.28;5080197;28;20784;-76
2022/05/19 04:48:56;;;;;;;14.37;13.00;;;;;;;7.84;86.22;93943.94;5078621;28;20189;-82
2022/05/19 04:51:21;;;;;;;11.57;10.67;;;;;;;8.68;84.47;93939.88;5077661;28;20308;-78
2022/05/19 04:53:47;;;;;;;12.83;11.93;;;;;;;8.66;84.39;93949.72;5076718;28;20293;-78
2022/05/19 04:56:12;;;;;;;14.13;12.83;;;;;;;7.57;88.38;93937.66;5074937;28;20252;-77
2022/05/19 04:58:37;;;;;;;14.07;12.77;;;;;;;7.62;90.09;93934.38;5076348;28;20193;-77
2022/05/19 05:01:05;;;;;;;12.57;11.53;;;;;;;8.16;92.15;93955.53;5077386;28;20221;-77
2022/05/19 05:03:30;;;;;;;14.83;13.30;;;;;;;8.64;87.32;93939.53;5078179;28;20201;-77
2022/05/19 05:05:56;;;;;;;13.33;11.80;;;;;;;9.11;85.72;93960.91;5080872;28;20225;-77
2022/05/19 05:08:21;;;;;;;13.97;12.67;;;;;;;8.62;85.80;93941.59;5080903;28;20185;-77
2022/05/19 05:10:46;;;;;;;15.20;13.90;;;;;;;8.37;88.54;93963.75;5075234;28;20246;-77
2022/05/19 05:13:14;;;;;;;15.57;14.17;;;;;;;7.95;89.12;93966.53;5080536;28;20221;-77
2022/05/19 05:15:41;;;;;;;13.70;12.30;;;;;;;8.87;87.69;93975.88;5081614;28;20228;-77
2022/05/19 05:18:07;;;;;;;13.73;12.63;;;;;;;9.28;85.47;93966.91;5080712;28;20173;-76
2022/05/19 05:20:33;;;;;;;13.93;12.63;;;;;;;9.37;81.76;93970.72;5073721;28;20289;-77
2022/05/19 05:22:58;;;;;;;14.43;13.23;;;;;;;9.83;80.94;93944.25;5079171;28;20200;-76
2022/05/19 05:25:26;;;;;;;14.47;13.17;;;;;;;10.37;79.21;93979.94;5078759;28;20214;-75
2022/05/19 05:27:52;;;;;;;13.83;12.77;;;;;;;10.32;77.41;93945.94;5075261;28;20208;-74
2022/05/19 05:30:17;;;;;;;20.33;12.10;;;;;;;10.62;77.41;93976.81;5075587;28;20356;-75
2022/05/19 05:32:43;;;;;;;14.73;13.33;;;;;;;10.15;77.11;93968.69;5080130;28;20230;-75
2022/05/19 05:35:10;;;;;;;30.53;28.53;;;;;;;11.08;75.87;93974.41;5077740;28;20189;-75
2022/05/19 05:37:36;;;;;;;14.73;13.53;;;;;;;11.96;72.67;93978.25;5074208;28;20197;-73
2022/05/19 05:40:03;;;;;;;14.90;13.70;;;;;;;11.78;71.37;93973.44;5076146;28;20193;-75
2022/05/19 05:42:28;;;;;;;14.77;13.03;;;;;;;11.94;70.63;93962.03;5079469;28;20182;-76
2022/05/19 05:44:54;;;;;;;14.37;13.17;;;;;;;11.99;71.38;93975.91;5079588;28;20196;-76
2022/05/19 05:47:19;;;;;;;14.87;13.67;;;;;;;11.98;72.19;93990.06;5078459;28;20205;-75
2022/05/19 05:49:45;;;;;;;14.80;13.20;;;;;;;12.03;73.63;93994.53;5077146;28;20227;-76
2022/05/19 05:52:10;;;;;;;15.27;14.07;;;;;;;11.63;73.93;93991.63;5080739;28;20236;-76
2022/05/19 05:54:36;;;;;;;14.13;12.93;;;;;;;13.65;67.87;93998.16;5077167;28;20222;-76
2022/05/19 05:57:02;;;;;;;14.93;13.73;;;;;;;17.09;56.36;93995.38;5076658;28;20228;-75
2022/05/19 05:59:27;;;;;;;15.33;13.93;;;;;;;21.01;43.87;93976.72;5075483;28;20182;-75
2022/05/19 06:01:53;;;;;;;12.50;11.40;;;;;;;23.11;38.14;94009.00;5077877;28;20228;-75
2022/05/19 06:04:19;;;;;;;12.70;11.60;;;;;;;22.70;39.09;94015.00;5076593;28;20204;-74
2022/05/19 06:06:46;;;;;;;11.60;10.80;;;;;;;23.56;36.50;94018.78;5073951;28;20255;-73
2022/05/19 06:09:15;;;;;;;12.27;11.40;;;;;;;24.86;34.59;94014.66;5080401;28;20194;-73
2022/05/19 06:11:42;;;;;;;10.73;10.02;;;;;;;26.79;31.16;94027.66;5079254;28;20261;-73
2022/05/19 06:14:08;;;;;;;13.05;11.95;;;;;;;22.42;38.13;94013.78;5080515;28;20676;-72
2022/05/19 06:16:33;;;;;;;11.40;10.55;;;;;;;26.45;31.47;94020.97;5076590;28;20241;-71
2022/05/19 06:18:59;;;;;;;11.75;10.68;;;;;;;24.25;34.93;94015.59;5077323;28;20211;-71
2022/05/19 06:21:25;;;;;;;11.95;10.85;;;;;;;26.45;31.63;94026.34;5077608;28;20232;-73
2022/05/19 06:23:50;;;;;;;11.93;10.95;;;;;;;27.54;29.63;94023.72;5075571;28;20196;-74
2022/05/19 06:26:16;;;;;;;12.05;11.02;;;;;;;26.85;30.13;94029.69;5078370;28;20250;-71
2022/05/19 06:28:41;;;;;;;12.25;10.80;;;;;;;21.95;37.00;94017.47;5079336;28;20218;-73
2022/05/19 06:31:06;;;;;;;11.93;10.82;;;;;;;21.77;40.11;94019.38;5077732;28;20248;-75
2022/05/19 06:33:35;;;;;;;12.70;11.60;;;;;;;24.03;35.20;94021.28;5078006;28;20202;-75
2022/05/19 06:36:03;;;;;;;12.27;11.27;;;;;;;21.74;38.27;94024.50;5079238;28;20309;-73
2022/05/19 06:38:29;;;;;;;12.77;11.88;;;;;;;16.78;51.55;94006.63;5074296;28;20200;-73
2022/05/19 06:42:00;;;;;;;12.83;11.73;;;;;;;15.00;58.57;93994.41;5075698;28;20232;-74
2022/05/19 06:43:46;;;;;;;12.83;11.83;;;;;;;14.69;59.77;94005.34;5074233;28;20219;-74
2022/05/19 06:46:12;;;;;;;14.10;13.00;;;;;;;14.05;63.50;94007.84;5079633;28;20221;-76
2022/05/19 06:48:38;;;;;;;13.67;12.67;;;;;;;13.76;63.51;93997.09;5078550;28;20189;-73
2022/05/19 06:51:03;;;;;;;13.30;12.33;;;;;;;13.24;66.83;94003.66;5075349;28;20252;-75
2022/05/19 06:53:29;;;;;;;13.53;12.23;;;;;;;13.90;64.89;94008.63;5075530;28;20267;-76
2022/05/19 06:55:54;;;;;;;13.17;12.17;;;;;;;13.58;64.34;94018.63;5075710;28;20235;-75
2022/05/19 06:58:19;;;;;;;13.80;12.30;;;;;;;13.16;65.15;94015.44;5078976;28;20189;-75
2022/05/19 07:00:45;;;;;;;12.97;12.07;;;;;;;13.31;64.99;93993.69;5080046;28;20236;-75
2022/05/19 07:03:10;;;;;;;14.13;12.83;;;;;;;13.61;68.17;94019.94;5079886;28;20189;-75
2022/05/19 07:05:36;;;;;;;14.17;13.03;;;;;;;12.83;66.50;94013.22;5074638;28;20298;-75
2022/05/19 07:08:03;;;;;;;13.07;12.07;;;;;;;12.45;66.97;94009.13;5079306;28;20199;-76
2022/05/19 07:10:29;;;;;;;12.83;11.90;;;;;;;12.62;66.64;94022.06;5075538;28;20229;-73
2022/05/19 07:12:55;;;;;;;13.10;12.23;;;;;;;12.94;66.10;94020.88;5076118;28;20192;-74
2022/05/19 07:15:21;;;;;;;12.53;11.63;;;;;;;13.54;63.20;94033.31;5079274;28;20217;-74
2022/05/19 07:17:48;;;;;;;12.80;11.90;;;;;;;13.50;61.83;94024.41;5079063;28;20189;-75
2022/05/19 07:22:58;;;;;;;12.73;11.90;;;;;;;13.09;63.12;94004.41;5079977;28;20203;-75
2022/05/19 07:25:23;;;;;;;10.93;10.13;;;;;;;13.15;59.12;94016.50;5073827;28;20280;-74
2022/05/19 07:27:49;;;;;;;12.67;11.50;;;;;;;13.07;59.69;94029.31;5074013;28;20185;-73
2022/05/19 07:30:15;;;;;;;11.57;10.63;;;;;;;12.44;60.80;94030.34;5076119;28;20225;-73
2022/05/19 07:32:41;;;;;;;11.53;10.83;;;;;;;13.16;62.04;94033.00;5071753;28;20196;-75
2022/05/19 07:35:10;;;;;;;10.17;9.63;;;;;;;13.56;61.56;94025.97;5075556;28;20254;-75
2022/05/19 07:37:35;;;;;;;10.07;9.23;;;;;;;13.21;57.70;94010.22;5076024;28;20196;-74
2022/05/19 07:40:01;;;;;;;11.13;10.33;;;;;;;13.48;59.11;94023.88;5074331;28;20197;-76
2022/05/19 07:42:26;;;;;;;10.10;9.60;;;;;;;13.67;57.63;94029.38;5076353;28;20173;-75
2022/05/19 07:44:52;;;;;;;11.47;10.63;;;;;;;13.77;57.00;94024.16;5071655;28;20336;-77
2022/05/19 07:47:19;;;;;;;10.57;9.87;;;;;;;13.37;59.64;94008.38;5085595;28;20264;-79
2022/05/19 07:49:45;;;;;;;11.37;10.50;;;;;;;13.79;56.41;94016.81;5058022;28;20293;-77
2022/05/19 07:52:11;;;;;;;10.73;10.10;;;;;;;13.58;60.32;94015.22;5055925;28;20252;-78
2022/05/19 07:54:37;;;;;;;11.10;10.20;;;;;;;13.80;57.34;94021.78;5056495;28;20197;-77
2022/05/19 07:57:04;;;;;;;10.53;9.93;;;;;;;13.92;60.19;94024.13;5056922;28;20324;-77
2022/05/19 07:59:29;;;;;;;10.50;10.00;;;;;;;13.29;57.48;94028.03;5057168;28;20185;-78
2022/05/19 08:01:55;;;;;;;9.23;8.83;;;;;;;14.00;56.21;94029.66;5053048;28;20221;-78
2022/05/19 08:04:22;;;;;;;9.20;8.70;;;;;;;13.97;57.93;94030.19;5057552;28;20249;-77
2022/05/19 08:06:48;;;;;;;10.53;9.87;;;;;;;13.97;59.15;94024.94;5058794;28;20229;-77
2022/05/19 08:11:59;;;;;;;9.33;8.87;;;;;;;14.41;55.62;94015.41;5075428;28;20271;-78
2022/05/19 08:17:10;;;;;;;9.23;8.53;;;;;;;14.68;52.66;94016.91;5075111;28;20242;-77
2022/05/19 08:19:37;;;;;;;9.40;8.90;;;;;;;14.68;48.30;93998.50;5074621;28;20204;-79
2022/05/19 08:22:03;;;;;;;9.67;9.23;;;;;;;14.61;52.07;94025.09;5079754;28;20244;-78
2022/05/19 08:24:30;;;;;;;8.67;8.27;;;;;;;14.68;48.60;94024.81;5078268;28;21140;-79
2022/05/19 08:26:56;;;;;;;8.33;8.03;;;;;;;14.91;44.14;94017.06;5076911;28;20216;-78
2022/05/19 08:29:21;;;;;;;9.07;8.57;;;;;;;15.22;41.45;94010.56;5075599;28;20189;-78
2022/05/19 08:31:47;;;;;;;8.23;7.83;;;;;;;15.49;41.08;94026.75;5076962;28;20221;-77
2022/05/19 08:34:14;;;;;;;9.20;8.80;;;;;;;15.44;43.10;94018.13;5073846;28;20231;-77
2022/05/19 08:36:43;;;;;;;7.60;7.30;;;;;;;14.85;41.16;94009.47;5074889;28;20248;-79
2022/05/19 08:39:10;;;;;;;8.17;7.87;;;;;;;14.56;38.39;93998.00;5076642;28;20189;-79
2022/05/19 08:41:42;;;;;;;7.70;7.30;;;;;;;15.33;35.67;94027.13;5075050;28;20266;-80
2022/05/19 08:44:16;;;;;;;8.80;8.50;;;;;;;15.10;35.75;94025.91;5080059;28;20185;-79
2022/05/19 08:46:47;;;;;;;8.07;7.67;;;;;;;14.69;37.46;94023.75;5073874;28;20231;-77
2022/05/19 08:49:19;;;;;;;8.80;8.40;;;;;;;14.24;36.38;94019.41;5076382;28;20196;-78
2022/05/19 08:52:08;;;;;;;7.90;7.60;;;;;;;14.31;36.04;94019.91;5079637;28;20916;-78
2022/05/19 08:54:36;;;;;;;7.93;7.53;;;;;;;14.58;36.00;94019.56;5076498;28;20219;-78
2022/05/19 08:57:09;;;;;;;8.07;7.77;;;;;;;14.34;36.47;94008.84;5075166;28;20247;-78
2022/05/19 08:59:44;;;;;;;9.00;8.50;;;;;;;14.24;36.62;94014.16;5073482;28;20227;-77
2022/05/19 09:02:13;;;;;;;8.87;8.23;;;;;;;14.33;38.08;93992.28;5076042;28;20265;-78
2022/05/19 09:04:51;;;;;;;7.87;7.57;;;;;;;14.56;36.80;94005.91;5077244;28;20193;-79
2022/05/19 09:10:37;;;;;;;8.30;8.00;;;;;;;14.81;36.90;93992.66;5075215;28;20227;-77
2022/05/19 09:13:21;;;;;;;9.17;8.77;;;;;;;15.26;39.31;94000.28;5079343;28;20186;-77
2022/05/19 09:15:47;;;;;;;8.70;8.30;;;;;;;15.25;39.85;94010.03;5078307;28;20225;-78
2022/05/19 09:18:16;;;;;;;8.90;8.40;;;;;;;15.05;38.33;93967.28;5077998;28;20241;-77
2022/05/19 09:20:50;;;;;;;8.53;8.13;;;;;;;15.31;40.95;93998.44;5081014;28;20229;-77
2022/05/19 09:23:15;;;;;;;9.20;8.40;;;;;;;14.79;37.45;93989.50;5079712;28;20280;-76
2022/05/19 09:25:46;;;;;;;8.80;8.40;;;;;;;14.99;38.01;93986.78;5077382;28;20241;-77
2022/05/19 09:28:13;;;;;;;8.43;8.13;;;;;;;14.97;36.65;93983.63;5078700;28;20212;-73
2022/05/19 09:30:49;;;;;;;8.80;8.43;;;;;;;15.39;35.66;93970.78;5076700;28;20229;-72
2022/05/19 09:33:18;;;;;;;8.50;8.20;;;;;;;15.73;36.60;93979.47;5082374;28;20255;-72
2022/05/19 09:35:48;;;;;;;9.20;8.70;;;;;;;15.92;36.11;93988.25;5078740;28;20256;-73
2022/05/19 09:38:34;;;;;;;8.73;8.27;;;;;;;15.55;40.33;93982.75;5081661;28;20237;-74
2022/05/19 09:41:07;;;;;;;8.77;8.37;;;;;;;15.87;38.28;93989.09;5077249;28;20257;-74
2022/05/19 09:43:36;;;;;;;9.20;8.80;;;;;;;15.79;37.62;93983.63;5077394;28;20177;-74
2022/05/19 09:46:15;;;;;;;8.70;8.30;;;;;;;15.58;39.25;93980.34;5078202;28;20249;-73
2022/05/19 09:48:45;;;;;;;9.30;8.90;;;;;;;15.74;36.54;93973.13;5078044;28;20241;-74
2022/05/19 09:51:14;;;;;;;8.63;8.27;;;;;;;15.27;39.17;93954.53;5077069;28;20232;-73
2022/05/19 09:53:59;;;;;;;8.80;8.40;;;;;;;15.69;38.09;93973.16;5075542;28;20217;-74
2022/05/19 09:56:38;;;;;;;9.13;8.60;;;;;;;15.73;38.01;93980.25;5077531;28;20252;-73
2022/05/19 09:59:07;;;;;;;7.77;7.37;;;;;;;15.64;39.69;93965.31;5077693;28;20186;-73
2022/05/19 10:01:39;;;;;;;8.50;8.10;;;;;;;15.95;36.36;93964.75;5078044;28;20246;-75
2022/05/19 10:04:15;;;;;;;9.20;8.70;;;;;;;15.61;37.58;93976.41;5078133;28;20262;-74
2022/05/19 10:06:56;;;;;;;8.60;8.20;;;;;;;15.43;37.61;93911.25;5076630;28;20246;-73
2022/05/19 10:09:33;;;;;;;8.30;7.90;;;;;;;15.98;38.54;93973.97;5077416;28;20184;-74
2022/05/19 10:12:08;;;;;;;8.83;8.27;;;;;;;16.01;36.83;93970.78;5080086;28;20224;-74
2022/05/19 10:14:35;;;;;;;9.10;8.70;;;;;;;16.02;39.21;93962.59;5079092;28;20275;-75
2022/05/19 10:17:32;;;;;;;8.97;8.57;;;;;;;15.97;38.56;93959.22;5077683;28;20225;-74
2022/05/19 10:20:12;;;;;;;9.03;8.63;;;;;;;16.22;36.37;93966.88;5079750;28;20197;-74
2022/05/19 10:23:00;;;;;;;8.30;7.80;;;;;;;16.14;38.24;93940.34;5075594;28;20181;-74
2022/05/19 10:26:00;;;;;;;8.70;8.40;;;;;;;16.58;36.44;93964.66;5076812;28;20251;-74
2022/05/19 10:31:52;;;;;;;9.07;8.57;;;;;;;16.19;41.41;93946.34;5079523;28;20247;-74
2022/05/19 10:34:36;;;;;;;8.77;8.37;;;;;;;16.41;38.90;93951.91;5077572;28;20216;-73
2022/05/19 10:37:33;;;;;;;8.53;8.13;;;;;;;16.44;37.08;93959.28;5075633;28;20229;-75
2022/05/19 10:40:15;;;;;;;8.40;8.00;;;;;;;16.40;37.66;93947.72;5076458;28;20210;-74
2022/05/19 10:43:02;;;;;;;9.00;8.40;;;;;;;16.44;38.24;93948.72;5077256;28;20181;-74
2022/05/19 10:45:39;;;;;;;9.20;8.70;;;;;;;16.90;36.42;93944.44;5080194;28;20227;-73
2022/05/19 10:48:47;;;;;;;8.40;8.10;;;;;;;16.66;36.83;93940.28;5073853;28;20200;-74
2022/05/19 10:51:16;;;;;;;9.33;8.63;;;;;;;16.46;37.73;93936.06;5069887;28;20220;-74
2022/05/19 10:53:51;;;;;;;9.60;8.90;;;;;;;16.77;35.91;93934.63;5078179;28;20285;-73
2022/05/19 10:56:55;;;;;;;9.37;8.87;;;;;;;16.74;36.43;93935.19;5077247;28;20228;-75
2022/05/19 10:59:32;;;;;;;9.70;9.00;;;;;;;16.58;37.15;93931.16;4996880;28;20215;-74
2022/05/19 11:02:13;;;;;;;9.53;9.03;;;;;;;16.86;37.79;93926.84;5070574;28;20227;-74
2022/05/19 11:04:41;;;;;;;8.90;8.50;;;;;;;16.98;39.30;93929.88;5079834;28;20189;-74
2022/05/19 11:07:19;;;;;;;8.73;8.33;;;;;;;17.05;37.43;93925.78;5077515;28;20225;-74
2022/05/19 11:10:02;;;;;;;8.73;8.33;;;;;;;17.57;37.24;93933.47;5075699;28;20183;-74
2022/05/19 11:12:53;;;;;;;9.10;8.60;;;;;;;17.48;35.84;93931.75;5055727;28;20222;-75
2022/05/19 11:15:37;;;;;;;8.60;8.20;;;;;;;17.25;34.18;93927.34;5062785;28;20232;-75
2022/05/19 11:18:09;;;;;;;8.53;8.00;;;;;;;16.97;35.91;93931.72;5077102;28;20204;-74
2022/05/19 11:21:00;;;;;;;8.17;7.77;;;;;;;16.98;37.48;93924.59;5077928;28;20663;-73
2022/05/19 11:23:29;;;;;;;9.33;8.90;;;;;;;17.13;36.40;93919.88;5071294;28;20198;-72
2022/05/19 11:29:06;;;;;;;8.60;8.23;;;;;;;17.08;36.89;93911.22;5077868;28;20207;-72
2022/05/19 11:31:53;;;;;;;9.17;8.70;;;;;;;17.17;35.54;93905.03;5075574;28;20217;-72
2022/05/19 11:34:25;;;;;;;8.70;8.30;;;;;;;17.15;35.69;93895.84;5076260;28;20213;-72
2022/05/19 11:37:14;;;;;;;8.50;8.20;;;;;;;17.08;34.32;93888.28;5076763;28;20223;-72
2022/05/19 11:39:52;;;;;;;8.47;8.07;;;;;;;17.46;36.63;93903.00;5070721;28;20454;-72
2022/05/19 11:43:02;;;;;;;9.70;9.20;;;;;;;17.24;34.41;93894.91;5078032;28;20311;-73
2022/05/19 11:45:30;;;;;;;8.60;8.30;;;;;;;16.85;34.09;93902.34;5073392;28;20279;-73
2022/05/19 11:56:36;;;;;;;9.13;8.60;;;;;;;17.20;35.86;93871.97;5075617;28;20264;-73
2022/05/19 11:59:01;;;;;;;8.53;8.13;;;;;;;17.58;36.47;93871.66;5079242;28;20169;-74
2022/05/19 12:01:38;;;;;;;8.63;8.23;;;;;;;17.35;35.64;93853.28;5075568;28;20236;-73
2022/05/19 12:04:28;;;;;;;8.20;7.80;;;;;;;17.67;35.04;93836.63;5079750;28;20193;-73
2022/05/19 12:07:22;;;;;;;8.50;7.93;;;;;;;17.54;37.28;93807.28;5076052;28;20291;-78
2022/05/19 12:09:53;;;;;;;11.47;10.67;;;;;;;17.94;36.38;93857.81;5078992;28;20185;-78